sensor_id;sensor_type;location;lat;lon;timestamp;P1;durP1;ratioP1;P2;durP2;ratioP2
4961;SDS011;2496;52.468;13.342;2024-03-08T00:02:14;35.07;;;18.90;;
4961;SDS011;2496;52.468;13.342;2024-03-08T00:04:41;30.90;;;18.07;;
4961;SDS011;2496;52.468;13.342;2024-03-08T00:07:11;34.93;;;18.23;;
4961;SDS011;2496;52.468;13.342;2024-03-08T00:09:39;28.27;;;17.00;;
4961;SDS011;2496;52.468;13.342;2024-03-08T00:12:07;31.87;;;18.63;;
4961;SDS011;2496;52.468;13.342;2024-03-08T00:14:35;32.97;;;19.20;;
4961;SDS011;2496;52.468;13.342;2024-03-08T00:17:03;40.27;;;19.67;;
4961;SDS011;2496;52.468;13.342;2024-03-08T00:19:30;44.03;;;18.57;;
4961;SDS011;2496;52.468;13.342;2024-03-08T00:21:58;35.17;;;18.97;;
4961;SDS011;2496;52.468;13.342;2024-03-08T00:24:26;38.20;;;18.27;;
4961;SDS011;2496;52.468;13.342;2024-03-08T00:26:56;38.80;;;19.67;;
4961;SDS011;2496;52.468;13.342;2024-03-08T00:29:23;31.33;;;17.80;;
4961;SDS011;2496;52.468;13.342;2024-03-08T00:31:51;31.67;;;19.20;;
4961;SDS011;2496;52.468;13.342;2024-03-08T00:34:18;30.10;;;18.03;;
4961;SDS011;2496;52.468;13.342;2024-03-08T00:36:45;34.37;;;18.70;;
4961;SDS011;2496;52.468;13.342;2024-03-08T00:39:14;34.07;;;17.20;;
4961;SDS011;2496;52.468;13.342;2024-03-08T00:41:42;32.07;;;17.70;;
4961;SDS011;2496;52.468;13.342;2024-03-08T00:44:09;33.37;;;16.60;;
4961;SDS011;2496;52.468;13.342;2024-03-08T00:46:37;39.07;;;18.90;;
4961;SDS011;2496;52.468;13.342;2024-03-08T00:49:04;35.57;;;19.30;;
4961;SDS011;2496;52.468;13.342;2024-03-08T00:51:31;34.20;;;18.03;;
4961;SDS011;2496;52.468;13.342;2024-03-08T00:53:59;28.27;;;16.43;;
4961;SDS011;2496;52.468;13.342;2024-03-08T00:56:26;34.47;;;18.90;;
4961;SDS011;2496;52.468;13.342;2024-03-08T00:58:54;43.40;;;19.73;;
4961;SDS011;2496;52.468;13.342;2024-03-08T01:01:22;33.03;;;17.20;;
4961;SDS011;2496;52.468;13.342;2024-03-08T01:03:49;31.53;;;17.60;;
4961;SDS011;2496;52.468;13.342;2024-03-08T01:06:17;37.43;;;17.87;;
4961;SDS011;2496;52.468;13.342;2024-03-08T01:08:44;39.03;;;18.87;;
4961;SDS011;2496;52.468;13.342;2024-03-08T01:11:12;32.77;;;18.37;;
4961;SDS011;2496;52.468;13.342;2024-03-08T01:13:40;32.77;;;18.60;;
4961;SDS011;2496;52.468;13.342;2024-03-08T01:16:08;32.83;;;17.10;;
4961;SDS011;2496;52.468;13.342;2024-03-08T01:18:36;32.50;;;18.87;;
4961;SDS011;2496;52.468;13.342;2024-03-08T01:21:03;36.50;;;19.50;;
4961;SDS011;2496;52.468;13.342;2024-03-08T01:23:31;36.27;;;19.33;;
4961;SDS011;2496;52.468;13.342;2024-03-08T01:25:59;31.10;;;17.67;;
4961;SDS011;2496;52.468;13.342;2024-03-08T01:28:27;33.13;;;18.10;;
4961;SDS011;2496;52.468;13.342;2024-03-08T01:30:54;29.60;;;16.73;;
4961;SDS011;2496;52.468;13.342;2024-03-08T01:33:23;34.93;;;18.23;;
4961;SDS011;2496;52.468;13.342;2024-03-08T01:35:51;35.87;;;18.17;;
4961;SDS011;2496;52.468;13.342;2024-03-08T01:38:18;38.87;;;19.50;;
4961;SDS011;2496;52.468;13.342;2024-03-08T01:40:46;37.53;;;19.77;;
4961;SDS011;2496;52.468;13.342;2024-03-08T01:43:19;30.63;;;18.20;;
4961;SDS011;2496;52.468;13.342;2024-03-08T01:45:47;35.30;;;18.60;;
4961;SDS011;2496;52.468;13.342;2024-03-08T01:48:14;35.37;;;18.10;;
4961;SDS011;2496;52.468;13.342;2024-03-08T01:50:43;35.70;;;18.77;;
4961;SDS011;2496;52.468;13.342;2024-03-08T01:53:11;35.97;;;18.07;;
4961;SDS011;2496;52.468;13.342;2024-03-08T01:55:40;31.37;;;17.70;;
4961;SDS011;2496;52.468;13.342;2024-03-08T01:58:08;38.43;;;17.97;;
4961;SDS011;2496;52.468;13.342;2024-03-08T02:00:36;31.90;;;17.03;;
4961;SDS011;2496;52.468;13.342;2024-03-08T02:03:06;34.20;;;17.97;;
4961;SDS011;2496;52.468;13.342;2024-03-08T02:05:33;28.10;;;16.50;;
4961;SDS011;2496;52.468;13.342;2024-03-08T02:08:03;37.00;;;20.03;;
4961;SDS011;2496;52.468;13.342;2024-03-08T02:10:32;38.27;;;18.77;;
4961;SDS011;2496;52.468;13.342;2024-03-08T02:12:59;40.73;;;19.63;;
4961;SDS011;2496;52.468;13.342;2024-03-08T02:18:10;31.87;;;17.07;;
4961;SDS011;2496;52.468;13.342;2024-03-08T02:20:38;38.60;;;15.93;;
4961;SDS011;2496;52.468;13.342;2024-03-08T02:23:06;35.77;;;18.73;;
4961;SDS011;2496;52.468;13.342;2024-03-08T02:25:33;31.57;;;17.20;;
4961;SDS011;2496;52.468;13.342;2024-03-08T02:28:01;35.17;;;19.17;;
4961;SDS011;2496;52.468;13.342;2024-03-08T02:30:28;35.23;;;17.37;;
4961;SDS011;2496;52.468;13.342;2024-03-08T02:32:56;40.13;;;18.90;;
4961;SDS011;2496;52.468;13.342;2024-03-08T02:35:23;30.90;;;17.23;;
4961;SDS011;2496;52.468;13.342;2024-03-08T02:37:51;31.83;;;17.40;;
4961;SDS011;2496;52.468;13.342;2024-03-08T02:40:19;33.47;;;17.90;;
4961;SDS011;2496;52.468;13.342;2024-03-08T02:42:47;38.23;;;19.73;;
4961;SDS011;2496;52.468;13.342;2024-03-08T02:45:14;32.23;;;18.10;;
4961;SDS011;2496;52.468;13.342;2024-03-08T02:47:41;30.73;;;16.20;;
4961;SDS011;2496;52.468;13.342;2024-03-08T02:50:09;35.27;;;18.97;;
4961;SDS011;2496;52.468;13.342;2024-03-08T02:52:36;35.87;;;18.50;;
4961;SDS011;2496;52.468;13.342;2024-03-08T02:55:06;36.43;;;19.93;;
4961;SDS011;2496;52.468;13.342;2024-03-08T02:57:35;33.13;;;18.60;;
4961;SDS011;2496;52.468;13.342;2024-03-08T03:00:03;40.27;;;18.30;;
4961;SDS011;2496;52.468;13.342;2024-03-08T03:02:31;35.03;;;18.20;;
4961;SDS011;2496;52.468;13.342;2024-03-08T03:04:58;32.07;;;17.30;;
4961;SDS011;2496;52.468;13.342;2024-03-08T03:07:30;38.90;;;19.63;;
4961;SDS011;2496;52.468;13.342;2024-03-08T03:09:58;33.87;;;18.27;;
4961;SDS011;2496;52.468;13.342;2024-03-08T03:12:28;37.13;;;17.30;;
4961;SDS011;2496;52.468;13.342;2024-03-08T03:14:55;32.57;;;18.10;;
4961;SDS011;2496;52.468;13.342;2024-03-08T03:17:22;34.50;;;18.20;;
4961;SDS011;2496;52.468;13.342;2024-03-08T03:19:49;36.53;;;18.87;;
4961;SDS011;2496;52.468;13.342;2024-03-08T03:22:17;36.20;;;19.97;;
4961;SDS011;2496;52.468;13.342;2024-03-08T03:24:45;39.53;;;17.67;;
4961;SDS011;2496;52.468;13.342;2024-03-08T03:27:12;34.50;;;17.57;;
4961;SDS011;2496;52.468;13.342;2024-03-08T03:29:42;35.47;;;18.50;;
4961;SDS011;2496;52.468;13.342;2024-03-08T03:32:10;35.00;;;18.13;;
4961;SDS011;2496;52.468;13.342;2024-03-08T03:34:38;36.37;;;18.67;;
4961;SDS011;2496;52.468;13.342;2024-03-08T03:37:05;37.37;;;19.33;;
4961;SDS011;2496;52.468;13.342;2024-03-08T03:39:33;35.80;;;20.20;;
4961;SDS011;2496;52.468;13.342;2024-03-08T03:42:05;34.10;;;17.93;;
4961;SDS011;2496;52.468;13.342;2024-03-08T03:44:33;34.97;;;19.40;;
4961;SDS011;2496;52.468;13.342;2024-03-08T03:47:01;40.70;;;21.37;;
4961;SDS011;2496;52.468;13.342;2024-03-08T03:49:28;37.97;;;18.97;;
4961;SDS011;2496;52.468;13.342;2024-03-08T03:51:55;35.40;;;19.27;;
4961;SDS011;2496;52.468;13.342;2024-03-08T03:54:23;36.53;;;19.33;;
4961;SDS011;2496;52.468;13.342;2024-03-08T03:56:50;34.83;;;18.53;;
4961;SDS011;2496;52.468;13.342;2024-03-08T03:59:18;34.07;;;19.70;;
4961;SDS011;2496;52.468;13.342;2024-03-08T04:01:45;32.10;;;18.70;;
4961;SDS011;2496;52.468;13.342;2024-03-08T04:04:15;41.83;;;19.90;;
4961;SDS011;2496;52.468;13.342;2024-03-08T04:06:43;40.93;;;20.43;;
4961;SDS011;2496;52.468;13.342;2024-03-08T04:09:10;44.90;;;21.17;;
4961;SDS011;2496;52.468;13.342;2024-03-08T04:11:37;37.53;;;19.20;;
4961;SDS011;2496;52.468;13.342;2024-03-08T04:14:04;33.80;;;20.40;;
4961;SDS011;2496;52.468;13.342;2024-03-08T04:16:32;37.43;;;20.77;;
4961;SDS011;2496;52.468;13.342;2024-03-08T04:18:59;42.10;;;21.67;;
4961;SDS011;2496;52.468;13.342;2024-03-08T04:21:31;42.67;;;20.40;;
4961;SDS011;2496;52.468;13.342;2024-03-08T04:23:58;42.80;;;21.57;;
4961;SDS011;2496;52.468;13.342;2024-03-08T04:26:25;39.03;;;19.43;;
4961;SDS011;2496;52.468;13.342;2024-03-08T04:28:52;55.10;;;20.93;;
4961;SDS011;2496;52.468;13.342;2024-03-08T04:31:19;43.93;;;20.40;;
4961;SDS011;2496;52.468;13.342;2024-03-08T04:33:47;45.47;;;20.60;;
4961;SDS011;2496;52.468;13.342;2024-03-08T04:36:14;43.37;;;21.03;;
4961;SDS011;2496;52.468;13.342;2024-03-08T04:38:43;38.50;;;20.00;;
4961;SDS011;2496;52.468;13.342;2024-03-08T04:41:11;38.77;;;19.60;;
4961;SDS011;2496;52.468;13.342;2024-03-08T04:43:38;45.23;;;21.97;;
4961;SDS011;2496;52.468;13.342;2024-03-08T04:46:05;44.90;;;22.53;;
4961;SDS011;2496;52.468;13.342;2024-03-08T04:48:33;35.60;;;19.60;;
4961;SDS011;2496;52.468;13.342;2024-03-08T04:51:01;41.37;;;21.67;;
4961;SDS011;2496;52.468;13.342;2024-03-08T04:53:29;40.87;;;21.27;;
4961;SDS011;2496;52.468;13.342;2024-03-08T04:55:59;35.67;;;19.07;;
4961;SDS011;2496;52.468;13.342;2024-03-08T04:58:31;46.00;;;21.73;;
4961;SDS011;2496;52.468;13.342;2024-03-08T05:00:59;40.60;;;20.60;;
4961;SDS011;2496;52.468;13.342;2024-03-08T05:03:27;41.03;;;22.87;;
4961;SDS011;2496;52.468;13.342;2024-03-08T05:05:55;43.47;;;22.67;;
4961;SDS011;2496;52.468;13.342;2024-03-08T05:08:22;44.23;;;23.47;;
4961;SDS011;2496;52.468;13.342;2024-03-08T05:10:49;40.50;;;20.03;;
4961;SDS011;2496;52.468;13.342;2024-03-08T05:13:18;45.47;;;23.37;;
4961;SDS011;2496;52.468;13.342;2024-03-08T05:15:47;41.60;;;21.63;;
4961;SDS011;2496;52.468;13.342;2024-03-08T05:18:15;46.43;;;21.80;;
4961;SDS011;2496;52.468;13.342;2024-03-08T05:20:43;42.07;;;21.53;;
4961;SDS011;2496;52.468;13.342;2024-03-08T05:23:10;50.50;;;23.87;;
4961;SDS011;2496;52.468;13.342;2024-03-08T05:25:37;41.60;;;22.13;;
4961;SDS011;2496;52.468;13.342;2024-03-08T05:28:05;44.23;;;21.93;;
4961;SDS011;2496;52.468;13.342;2024-03-08T05:30:35;45.67;;;22.93;;
4961;SDS011;2496;52.468;13.342;2024-03-08T05:33:02;46.00;;;21.63;;
4961;SDS011;2496;52.468;13.342;2024-03-08T05:35:30;51.40;;;23.93;;
4961;SDS011;2496;52.468;13.342;2024-03-08T05:37:57;49.63;;;22.60;;
4961;SDS011;2496;52.468;13.342;2024-03-08T05:40:24;38.97;;;22.00;;
4961;SDS011;2496;52.468;13.342;2024-03-08T05:42:52;57.00;;;24.10;;
4961;SDS011;2496;52.468;13.342;2024-03-08T05:45:19;41.60;;;22.83;;
4961;SDS011;2496;52.468;13.342;2024-03-08T05:47:48;47.00;;;22.77;;
4961;SDS011;2496;52.468;13.342;2024-03-08T05:50:16;53.53;;;25.43;;
4961;SDS011;2496;52.468;13.342;2024-03-08T05:52:44;46.00;;;23.33;;
4961;SDS011;2496;52.468;13.342;2024-03-08T05:55:12;41.77;;;22.30;;
4961;SDS011;2496;52.468;13.342;2024-03-08T05:57:40;42.27;;;22.37;;
4961;SDS011;2496;52.468;13.342;2024-03-08T06:00:07;53.53;;;24.67;;
4961;SDS011;2496;52.468;13.342;2024-03-08T06:02:36;38.90;;;21.87;;
4961;SDS011;2496;52.468;13.342;2024-03-08T06:05:07;45.77;;;22.87;;
4961;SDS011;2496;52.468;13.342;2024-03-08T06:07:35;48.10;;;24.80;;
4961;SDS011;2496;52.468;13.342;2024-03-08T06:10:05;44.00;;;23.70;;
4961;SDS011;2496;52.468;13.342;2024-03-08T06:12:35;46.70;;;22.90;;
4961;SDS011;2496;52.468;13.342;2024-03-08T06:15:05;47.93;;;25.20;;
4961;SDS011;2496;52.468;13.342;2024-03-08T06:17:33;53.53;;;22.87;;
4961;SDS011;2496;52.468;13.342;2024-03-08T06:20:01;49.67;;;22.40;;
4961;SDS011;2496;52.468;13.342;2024-03-08T06:22:30;45.53;;;24.23;;
4961;SDS011;2496;52.468;13.342;2024-03-08T06:24:58;44.37;;;23.77;;
4961;SDS011;2496;52.468;13.342;2024-03-08T06:27:25;48.80;;;24.27;;
4961;SDS011;2496;52.468;13.342;2024-03-08T06:29:53;48.77;;;24.10;;
4961;SDS011;2496;52.468;13.342;2024-03-08T06:32:20;46.07;;;24.00;;
4961;SDS011;2496;52.468;13.342;2024-03-08T06:34:47;46.67;;;23.93;;
4961;SDS011;2496;52.468;13.342;2024-03-08T06:37:15;45.70;;;23.00;;
4961;SDS011;2496;52.468;13.342;2024-03-08T06:39:48;47.30;;;24.60;;
4961;SDS011;2496;52.468;13.342;2024-03-08T06:42:16;54.27;;;25.17;;
4961;SDS011;2496;52.468;13.342;2024-03-08T06:44:43;50.77;;;23.47;;
4961;SDS011;2496;52.468;13.342;2024-03-08T06:47:14;54.10;;;25.57;;
4961;SDS011;2496;52.468;13.342;2024-03-08T06:49:41;50.10;;;25.90;;
4961;SDS011;2496;52.468;13.342;2024-03-08T06:52:09;47.10;;;24.10;;
4961;SDS011;2496;52.468;13.342;2024-03-08T06:54:36;43.90;;;23.07;;
4961;SDS011;2496;52.468;13.342;2024-03-08T06:57:05;47.87;;;22.30;;
4961;SDS011;2496;52.468;13.342;2024-03-08T06:59:35;46.50;;;23.80;;
4961;SDS011;2496;52.468;13.342;2024-03-08T07:02:02;49.30;;;23.37;;
4961;SDS011;2496;52.468;13.342;2024-03-08T07:04:30;53.50;;;25.20;;
4961;SDS011;2496;52.468;13.342;2024-03-08T07:06:58;48.37;;;25.73;;
4961;SDS011;2496;52.468;13.342;2024-03-08T07:09:27;46.40;;;25.07;;
4961;SDS011;2496;52.468;13.342;2024-03-08T07:11:54;43.17;;;23.10;;
4961;SDS011;2496;52.468;13.342;2024-03-08T07:14:23;59.93;;;24.80;;
4961;SDS011;2496;52.468;13.342;2024-03-08T07:16:51;47.33;;;23.70;;
4961;SDS011;2496;52.468;13.342;2024-03-08T07:19:18;39.40;;;22.33;;
4961;SDS011;2496;52.468;13.342;2024-03-08T07:21:46;45.87;;;24.53;;
4961;SDS011;2496;52.468;13.342;2024-03-08T07:24:13;41.80;;;21.90;;
4961;SDS011;2496;52.468;13.342;2024-03-08T07:26:58;44.27;;;23.53;;
4961;SDS011;2496;52.468;13.342;2024-03-08T07:29:26;42.37;;;23.37;;
4961;SDS011;2496;52.468;13.342;2024-03-08T07:31:53;38.20;;;21.37;;
4961;SDS011;2496;52.468;13.342;2024-03-08T07:34:33;46.33;;;21.47;;
4961;SDS011;2496;52.468;13.342;2024-03-08T07:37:00;49.83;;;23.37;;
4961;SDS011;2496;52.468;13.342;2024-03-08T07:39:29;42.73;;;21.17;;
4961;SDS011;2496;52.468;13.342;2024-03-08T07:41:57;47.37;;;23.40;;
4961;SDS011;2496;52.468;13.342;2024-03-08T07:44:24;38.83;;;19.70;;
4961;SDS011;2496;52.468;13.342;2024-03-08T07:46:53;37.60;;;21.30;;
4961;SDS011;2496;52.468;13.342;2024-03-08T07:49:20;44.20;;;21.90;;
4961;SDS011;2496;52.468;13.342;2024-03-08T07:51:47;42.50;;;22.53;;
4961;SDS011;2496;52.468;13.342;2024-03-08T07:54:15;43.60;;;22.60;;
4961;SDS011;2496;52.468;13.342;2024-03-08T07:56:42;41.80;;;21.63;;
4961;SDS011;2496;52.468;13.342;2024-03-08T07:59:09;38.57;;;21.20;;
4961;SDS011;2496;52.468;13.342;2024-03-08T08:01:37;46.53;;;22.27;;
4961;SDS011;2496;52.468;13.342;2024-03-08T08:04:05;41.93;;;22.10;;
4961;SDS011;2496;52.468;13.342;2024-03-08T08:06:37;40.13;;;21.80;;
4961;SDS011;2496;52.468;13.342;2024-03-08T08:09:06;43.33;;;22.97;;
4961;SDS011;2496;52.468;13.342;2024-03-08T08:11:39;37.80;;;21.10;;
4961;SDS011;2496;52.468;13.342;2024-03-08T08:14:10;41.80;;;20.67;;
4961;SDS011;2496;52.468;13.342;2024-03-08T08:16:37;43.90;;;21.30;;
4961;SDS011;2496;52.468;13.342;2024-03-08T08:19:07;43.93;;;22.13;;
4961;SDS011;2496;52.468;13.342;2024-03-08T08:21:35;45.87;;;20.93;;
4961;SDS011;2496;52.468;13.342;2024-03-08T08:24:02;39.93;;;20.70;;
4961;SDS011;2496;52.468;13.342;2024-03-08T08:26:30;40.47;;;21.60;;
4961;SDS011;2496;52.468;13.342;2024-03-08T08:28:58;38.87;;;22.40;;
4961;SDS011;2496;52.468;13.342;2024-03-08T08:31:26;42.80;;;20.97;;
4961;SDS011;2496;52.468;13.342;2024-03-08T08:33:53;39.80;;;20.90;;
4961;SDS011;2496;52.468;13.342;2024-03-08T08:36:24;47.37;;;22.40;;
4961;SDS011;2496;52.468;13.342;2024-03-08T08:38:54;43.00;;;21.60;;
4961;SDS011;2496;52.468;13.342;2024-03-08T08:41:23;32.70;;;19.23;;
4961;SDS011;2496;52.468;13.342;2024-03-08T08:43:51;41.17;;;20.83;;
4961;SDS011;2496;52.468;13.342;2024-03-08T08:46:19;33.47;;;19.50;;
4961;SDS011;2496;52.468;13.342;2024-03-08T08:48:46;36.10;;;20.43;;
4961;SDS011;2496;52.468;13.342;2024-03-08T08:51:13;36.83;;;18.07;;
4961;SDS011;2496;52.468;13.342;2024-03-08T08:53:42;36.63;;;20.10;;
4961;SDS011;2496;52.468;13.342;2024-03-08T08:56:11;34.33;;;21.57;;
4961;SDS011;2496;52.468;13.342;2024-03-08T08:58:39;31.40;;;18.00;;
4961;SDS011;2496;52.468;13.342;2024-03-08T09:01:07;38.20;;;18.00;;
4961;SDS011;2496;52.468;13.342;2024-03-08T09:03:35;33.27;;;18.90;;
4961;SDS011;2496;52.468;13.342;2024-03-08T09:06:02;40.50;;;19.13;;
4961;SDS011;2496;52.468;13.342;2024-03-08T09:08:29;33.30;;;18.93;;
4961;SDS011;2496;52.468;13.342;2024-03-08T09:10:58;35.20;;;19.70;;
4961;SDS011;2496;52.468;13.342;2024-03-08T09:13:26;29.73;;;18.53;;
4961;SDS011;2496;52.468;13.342;2024-03-08T09:15:53;33.57;;;20.00;;
4961;SDS011;2496;52.468;13.342;2024-03-08T09:18:20;31.00;;;17.50;;
4961;SDS011;2496;52.468;13.342;2024-03-08T09:20:49;31.87;;;20.10;;
4961;SDS011;2496;52.468;13.342;2024-03-08T09:23:17;33.10;;;18.47;;
4961;SDS011;2496;52.468;13.342;2024-03-08T09:25:46;36.40;;;19.57;;
4961;SDS011;2496;52.468;13.342;2024-03-08T09:28:15;32.43;;;18.40;;
4961;SDS011;2496;52.468;13.342;2024-03-08T09:30:42;36.40;;;19.40;;
4961;SDS011;2496;52.468;13.342;2024-03-08T09:33:09;33.73;;;18.33;;
4961;SDS011;2496;52.468;13.342;2024-03-08T09:35:38;33.80;;;19.23;;
4961;SDS011;2496;52.468;13.342;2024-03-08T09:38:05;34.90;;;19.23;;
4961;SDS011;2496;52.468;13.342;2024-03-08T09:40:38;29.10;;;16.77;;
4961;SDS011;2496;52.468;13.342;2024-03-08T09:43:05;34.27;;;18.43;;
4961;SDS011;2496;52.468;13.342;2024-03-08T09:45:36;37.93;;;18.30;;
4961;SDS011;2496;52.468;13.342;2024-03-08T09:48:04;28.87;;;16.57;;
4961;SDS011;2496;52.468;13.342;2024-03-08T09:50:33;35.93;;;19.83;;
4961;SDS011;2496;52.468;13.342;2024-03-08T09:53:04;29.03;;;15.80;;
4961;SDS011;2496;52.468;13.342;2024-03-08T09:55:34;30.63;;;17.07;;
4961;SDS011;2496;52.468;13.342;2024-03-08T09:58:05;33.10;;;15.77;;
4961;SDS011;2496;52.468;13.342;2024-03-08T10:00:51;29.07;;;16.23;;
4961;SDS011;2496;52.468;13.342;2024-03-08T10:03:20;29.77;;;15.63;;
4961;SDS011;2496;52.468;13.342;2024-03-08T10:05:48;31.20;;;16.73;;
4961;SDS011;2496;52.468;13.342;2024-03-08T10:08:16;24.57;;;15.93;;
4961;SDS011;2496;52.468;13.342;2024-03-08T10:10:44;27.30;;;15.80;;
4961;SDS011;2496;52.468;13.342;2024-03-08T10:13:11;26.30;;;14.90;;
4961;SDS011;2496;52.468;13.342;2024-03-08T10:15:41;28.47;;;15.00;;
4961;SDS011;2496;52.468;13.342;2024-03-08T10:18:10;27.40;;;16.00;;
4961;SDS011;2496;52.468;13.342;2024-03-08T10:20:37;27.33;;;15.73;;
4961;SDS011;2496;52.468;13.342;2024-03-08T10:23:05;27.10;;;14.90;;
4961;SDS011;2496;52.468;13.342;2024-03-08T10:25:34;25.87;;;14.17;;
4961;SDS011;2496;52.468;13.342;2024-03-08T10:28:02;27.90;;;15.80;;
4961;SDS011;2496;52.468;13.342;2024-03-08T10:30:30;43.27;;;14.97;;
4961;SDS011;2496;52.468;13.342;2024-03-08T10:32:57;26.00;;;15.47;;
4961;SDS011;2496;52.468;13.342;2024-03-08T10:35:26;26.90;;;15.17;;
4961;SDS011;2496;52.468;13.342;2024-03-08T10:37:53;25.00;;;13.30;;
4961;SDS011;2496;52.468;13.342;2024-03-08T10:40:26;25.57;;;13.50;;
4961;SDS011;2496;52.468;13.342;2024-03-08T10:42:54;22.27;;;13.77;;
4961;SDS011;2496;52.468;13.342;2024-03-08T10:45:26;24.00;;;13.00;;
4961;SDS011;2496;52.468;13.342;2024-03-08T10:47:57;26.00;;;13.13;;
4961;SDS011;2496;52.468;13.342;2024-03-08T10:50:32;21.53;;;12.83;;
4961;SDS011;2496;52.468;13.342;2024-03-08T10:53:00;25.90;;;14.60;;
4961;SDS011;2496;52.468;13.342;2024-03-08T10:55:28;22.90;;;13.40;;
4961;SDS011;2496;52.468;13.342;2024-03-08T10:57:55;28.77;;;13.00;;
4961;SDS011;2496;52.468;13.342;2024-03-08T11:00:23;25.40;;;12.63;;
4961;SDS011;2496;52.468;13.342;2024-03-08T11:02:52;22.97;;;13.57;;
4961;SDS011;2496;52.468;13.342;2024-03-08T11:05:31;23.23;;;12.67;;
4961;SDS011;2496;52.468;13.342;2024-03-08T11:08:03;20.83;;;12.50;;
4961;SDS011;2496;52.468;13.342;2024-03-08T11:10:30;24.63;;;12.73;;
4961;SDS011;2496;52.468;13.342;2024-03-08T11:12:58;25.83;;;13.87;;
4961;SDS011;2496;52.468;13.342;2024-03-08T11:15:25;24.37;;;13.27;;
4961;SDS011;2496;52.468;13.342;2024-03-08T11:17:57;26.57;;;13.10;;
4961;SDS011;2496;52.468;13.342;2024-03-08T11:20:25;18.50;;;11.10;;
4961;SDS011;2496;52.468;13.342;2024-03-08T11:22:53;24.90;;;12.30;;
4961;SDS011;2496;52.468;13.342;2024-03-08T11:25:31;19.07;;;12.00;;
4961;SDS011;2496;52.468;13.342;2024-03-08T11:28:08;23.97;;;11.27;;
4961;SDS011;2496;52.468;13.342;2024-03-08T11:30:41;19.00;;;11.77;;
4961;SDS011;2496;52.468;13.342;2024-03-08T11:33:11;24.47;;;13.30;;
4961;SDS011;2496;52.468;13.342;2024-03-08T11:35:38;22.73;;;12.90;;
4961;SDS011;2496;52.468;13.342;2024-03-08T11:38:07;24.73;;;13.20;;
4961;SDS011;2496;52.468;13.342;2024-03-08T11:40:36;21.40;;;12.43;;
4961;SDS011;2496;52.468;13.342;2024-03-08T11:43:05;25.50;;;12.70;;
4961;SDS011;2496;52.468;13.342;2024-03-08T11:45:33;25.80;;;13.47;;
4961;SDS011;2496;52.468;13.342;2024-03-08T11:48:02;27.40;;;13.33;;
4961;SDS011;2496;52.468;13.342;2024-03-08T11:50:30;18.77;;;11.60;;
4961;SDS011;2496;52.468;13.342;2024-03-08T11:53:01;22.47;;;11.77;;
4961;SDS011;2496;52.468;13.342;2024-03-08T11:55:29;18.63;;;11.10;;
4961;SDS011;2496;52.468;13.342;2024-03-08T11:58:01;18.07;;;10.40;;
4961;SDS011;2496;52.468;13.342;2024-03-08T12:00:29;23.37;;;12.20;;
4961;SDS011;2496;52.468;13.342;2024-03-08T12:03:04;20.40;;;11.97;;
4961;SDS011;2496;52.468;13.342;2024-03-08T12:05:32;23.43;;;12.97;;
4961;SDS011;2496;52.468;13.342;2024-03-08T12:08:00;20.73;;;12.10;;
4961;SDS011;2496;52.468;13.342;2024-03-08T12:10:28;24.83;;;13.10;;
4961;SDS011;2496;52.468;13.342;2024-03-08T12:12:56;22.40;;;12.73;;
4961;SDS011;2496;52.468;13.342;2024-03-08T12:15:27;28.03;;;13.13;;
4961;SDS011;2496;52.468;13.342;2024-03-08T12:17:58;19.73;;;11.70;;
4961;SDS011;2496;52.468;13.342;2024-03-08T12:20:26;26.87;;;12.00;;
4961;SDS011;2496;52.468;13.342;2024-03-08T12:22:55;19.70;;;11.00;;
4961;SDS011;2496;52.468;13.342;2024-03-08T12:25:23;22.03;;;11.77;;
4961;SDS011;2496;52.468;13.342;2024-03-08T12:27:52;18.30;;;12.03;;
4961;SDS011;2496;52.468;13.342;2024-03-08T12:30:21;19.50;;;10.97;;
4961;SDS011;2496;52.468;13.342;2024-03-08T12:32:54;17.90;;;10.20;;
4961;SDS011;2496;52.468;13.342;2024-03-08T12:35:23;20.87;;;10.40;;
4961;SDS011;2496;52.468;13.342;2024-03-08T12:37:51;15.53;;;10.10;;
4961;SDS011;2496;52.468;13.342;2024-03-08T12:40:19;17.80;;;11.93;;
4961;SDS011;2496;52.468;13.342;2024-03-08T12:42:46;21.93;;;11.37;;
4961;SDS011;2496;52.468;13.342;2024-03-08T12:45:14;20.10;;;11.63;;
4961;SDS011;2496;52.468;13.342;2024-03-08T12:47:41;20.00;;;11.60;;
4961;SDS011;2496;52.468;13.342;2024-03-08T12:50:11;20.43;;;10.87;;
4961;SDS011;2496;52.468;13.342;2024-03-08T12:52:38;18.73;;;11.70;;
4961;SDS011;2496;52.468;13.342;2024-03-08T12:55:06;22.43;;;14.13;;
4961;SDS011;2496;52.468;13.342;2024-03-08T12:57:34;22.40;;;13.10;;
4961;SDS011;2496;52.468;13.342;2024-03-08T13:00:03;24.87;;;12.83;;
4961;SDS011;2496;52.468;13.342;2024-03-08T13:02:31;24.83;;;12.80;;
4961;SDS011;2496;52.468;13.342;2024-03-08T13:05:00;28.33;;;15.00;;
4961;SDS011;2496;52.468;13.342;2024-03-08T13:07:31;25.13;;;14.43;;
4961;SDS011;2496;52.468;13.342;2024-03-08T13:09:58;23.60;;;12.80;;
4961;SDS011;2496;52.468;13.342;2024-03-08T13:12:26;21.73;;;12.90;;
4961;SDS011;2496;52.468;13.342;2024-03-08T13:14:53;27.13;;;14.13;;
4961;SDS011;2496;52.468;13.342;2024-03-08T13:17:22;19.30;;;14.00;;
4961;SDS011;2496;52.468;13.342;2024-03-08T13:19:49;30.23;;;14.70;;
4961;SDS011;2496;52.468;13.342;2024-03-08T13:22:16;23.90;;;14.80;;
4961;SDS011;2496;52.468;13.342;2024-03-08T13:24:49;24.90;;;15.70;;
4961;SDS011;2496;52.468;13.342;2024-03-08T13:27:17;22.63;;;12.50;;
4961;SDS011;2496;52.468;13.342;2024-03-08T13:29:48;22.80;;;12.40;;
4961;SDS011;2496;52.468;13.342;2024-03-08T13:32:15;27.13;;;14.27;;
4961;SDS011;2496;52.468;13.342;2024-03-08T13:34:45;24.13;;;13.33;;
4961;SDS011;2496;52.468;13.342;2024-03-08T13:37:16;26.07;;;13.70;;
4961;SDS011;2496;52.468;13.342;2024-03-08T13:39:43;19.17;;;12.23;;
4961;SDS011;2496;52.468;13.342;2024-03-08T13:42:12;25.03;;;13.73;;
4961;SDS011;2496;52.468;13.342;2024-03-08T13:44:44;22.47;;;13.73;;
4961;SDS011;2496;52.468;13.342;2024-03-08T13:47:12;22.37;;;11.87;;
4961;SDS011;2496;52.468;13.342;2024-03-08T13:49:40;26.70;;;15.27;;
4961;SDS011;2496;52.468;13.342;2024-03-08T13:52:08;23.77;;;13.67;;
4961;SDS011;2496;52.468;13.342;2024-03-08T13:54:37;23.57;;;14.20;;
4961;SDS011;2496;52.468;13.342;2024-03-08T13:57:05;25.70;;;14.20;;
4961;SDS011;2496;52.468;13.342;2024-03-08T13:59:33;24.70;;;14.67;;
4961;SDS011;2496;52.468;13.342;2024-03-08T14:02:02;19.83;;;12.70;;
4961;SDS011;2496;52.468;13.342;2024-03-08T14:04:29;23.10;;;12.33;;
4961;SDS011;2496;52.468;13.342;2024-03-08T14:06:57;20.80;;;10.70;;
4961;SDS011;2496;52.468;13.342;2024-03-08T14:09:28;23.87;;;13.20;;
4961;SDS011;2496;52.468;13.342;2024-03-08T14:11:56;18.90;;;11.73;;
4961;SDS011;2496;52.468;13.342;2024-03-08T14:14:23;22.07;;;11.43;;
4961;SDS011;2496;52.468;13.342;2024-03-08T14:16:52;19.87;;;11.30;;
4961;SDS011;2496;52.468;13.342;2024-03-08T14:19:22;22.30;;;11.80;;
4961;SDS011;2496;52.468;13.342;2024-03-08T14:21:50;21.03;;;12.23;;
4961;SDS011;2496;52.468;13.342;2024-03-08T14:24:18;22.63;;;12.23;;
4961;SDS011;2496;52.468;13.342;2024-03-08T14:26:45;19.77;;;12.00;;
4961;SDS011;2496;52.468;13.342;2024-03-08T14:29:14;20.63;;;12.40;;
4961;SDS011;2496;52.468;13.342;2024-03-08T14:31:43;23.97;;;13.00;;
4961;SDS011;2496;52.468;13.342;2024-03-08T14:34:11;19.60;;;11.20;;
4961;SDS011;2496;52.468;13.342;2024-03-08T14:36:39;18.13;;;11.50;;
4961;SDS011;2496;52.468;13.342;2024-03-08T14:39:07;17.23;;;10.30;;
4961;SDS011;2496;52.468;13.342;2024-03-08T14:41:34;16.37;;;10.60;;
4961;SDS011;2496;52.468;13.342;2024-03-08T14:44:01;18.30;;;11.57;;